Time;durP1;ratioP1;P1;durP2;ratioP2;P2;SDS_P1;SDS_P2;PMS_P1;PMS_P2;Temp;Humidity;BMP_temperature;BMP_pressure;BME280_temperature;BME280_humidity;BME280_pressure;Samples;Min_cycle;Max_cycle;Signal;HPM_P1;HPM_P2
2022/10/12 00:01:28;;;;;;;147.90;47.28;;;12.50;99.90;;;11.56;100.00;98013.81;5013052;28;20508;-76
2022/10/12 00:03:54;;;;;;;143.20;47.87;;;12.40;99.90;;;11.48;100.00;98012.38;5012760;28;20503;-76
2022/10/12 00:06:22;;;;;;;138.20;45.80;;;12.40;99.90;;;11.45;100.00;98012.03;5013083;28;20432;-76
2022/10/12 00:08:52;;;;;;;132.50;46.10;;;12.40;99.90;;;11.47;100.00;98013.41;5012841;28;20949;-76
2022/10/12 00:11:21;;;;;;;153.85;49.13;;;12.40;99.90;;;11.53;100.00;98011.63;5013030;28;20409;-76
2022/10/12 00:13:48;;;;;;;161.02;50.88;;;12.40;99.90;;;11.55;100.00;98009.56;5012475;28;20424;-76
2022/10/12 00:16:17;;;;;;;154.97;49.37;;;12.50;99.90;;;11.46;100.00;98014.44;5012912;28;20456;-76
2022/10/12 00:18:42;;;;;;;138.18;47.78;;;12.40;99.90;;;11.41;100.00;98013.56;5012944;28;20838;-76
2022/10/12 00:21:12;;;;;;;136.25;45.78;;;12.30;99.90;;;11.39;100.00;98011.16;5012863;28;20402;-76
2022/10/12 00:23:39;;;;;;;136.90;47.58;;;12.30;99.90;;;11.38;100.00;98016.69;5012387;28;20440;-75
2022/10/12 00:26:07;;;;;;;139.57;46.72;;;12.30;99.90;;;11.32;100.00;98015.81;5012645;28;20412;-75
2022/10/12 00:28:34;;;;;;;139.07;46.65;;;12.20;99.90;;;11.22;100.00;98016.44;5012608;28;20453;-76
2022/10/12 00:31:06;;;;;;;137.13;46.40;;;12.20;99.90;;;11.20;100.00;98009.78;5012678;28;20818;-76
2022/10/12 00:33:32;;;;;;;158.18;48.97;;;12.20;99.90;;;11.19;100.00;98013.47;5012211;28;20484;-75
2022/10/12 00:35:58;;;;;;;149.70;50.67;;;12.20;99.90;;;11.22;100.00;98015.63;5012549;28;20413;-76
2022/10/12 00:38:24;;;;;;;148.88;47.20;;;12.20;99.90;;;11.15;100.00;98007.84;5012511;28;20894;-75
2022/10/12 00:40:50;;;;;;;138.23;46.63;;;12.10;99.90;;;11.10;100.00;98002.47;5012376;28;20828;-76
2022/10/12 00:43:29;;;;;;;127.13;44.87;;;12.00;99.90;;;11.05;100.00;97999.69;5011365;28;20945;-76
2022/10/12 00:45:57;;;;;;;140.30;47.40;;;12.00;99.90;;;11.01;100.00;98000.44;5012286;28;20491;-76
2022/10/12 00:48:25;;;;;;;130.98;46.67;;;11.90;99.90;;;10.97;100.00;97997.47;5011082;28;20421;-76
2022/10/12 00:50:52;;;;;;;129.43;46.00;;;11.90;99.90;;;10.99;100.00;97997.22;5012185;28;20882;-76
2022/10/12 00:53:22;;;;;;;145.38;47.75;;;11.90;99.90;;;11.04;100.00;97994.66;5011813;28;20397;-76
2022/10/12 00:55:53;;;;;;;152.57;49.80;;;12.00;99.90;;;11.07;100.00;98005.56;5012292;28;20970;-76
2022/10/12 00:58:20;;;;;;;155.35;52.13;;;12.00;99.90;;;11.10;100.00;98004.31;5012261;28;20500;-76
2022/10/12 01:00:46;;;;;;;156.18;50.20;;;12.10;99.90;;;11.04;100.00;97998.13;5011875;28;20432;-76
2022/10/12 01:03:17;;;;;;;140.82;48.97;;;11.90;99.90;;;10.98;100.00;97998.25;5011599;28;20401;-76
2022/10/12 01:05:44;;;;;;;157.48;51.88;;;11.90;99.90;;;10.97;100.00;98001.97;5011888;28;20441;-76
2022/10/12 01:08:10;;;;;;;129.90;45.70;;;11.90;99.90;;;10.94;100.00;97997.94;5011858;28;20417;-76
2022/10/12 01:10:36;;;;;;;148.05;49.30;;;11.90;99.90;;;10.97;100.00;98005.41;5011862;28;20424;-76
2022/10/12 01:13:02;;;;;;;170.32;54.60;;;11.90;99.90;;;10.99;100.00;98005.97;5011461;28;20770;-76
2022/10/12 01:15:35;;;;;;;155.17;50.23;;;11.90;99.90;;;10.99;100.00;98005.97;4994107;28;20507;-76
2022/10/12 01:18:11;;;;;;;163.02;49.60;;;12.00;99.90;;;11.00;100.00;98009.41;5011826;28;20420;-75
2022/10/12 01:21:00;;;;;;;162.85;52.53;;;12.00;99.90;;;10.99;100.00;98010.44;5011729;28;20485;-75
2022/10/12 01:24:26;;;;;;;151.98;50.33;;;11.90;99.90;;;10.93;100.00;98006.91;5011353;28;20409;-75
2022/10/12 01:27:26;;;;;;;165.38;51.53;;;11.90;99.90;;;10.90;100.00;98003.97;5011423;28;20420;-76
2022/10/12 01:30:21;;;;;;;164.48;52.47;;;11.90;99.90;;;10.89;100.00;98007.66;5011620;28;20404;-76
2022/10/12 01:33:18;;;;;;;145.43;48.60;;;11.80;99.90;;;10.80;100.00;98002.72;5011086;28;20411;-75
2022/10/12 01:35:55;;;;;;;150.50;49.67;;;11.80;99.90;;;10.80;100.00;97997.44;5011336;28;20408;-75
2022/10/12 01:38:39;;;;;;;151.50;51.38;;;11.80;99.90;;;10.80;100.00;97994.78;5011650;28;20444;-76
2022/10/12 01:41:12;;;;;;;155.73;50.50;;;11.80;99.90;;;10.79;100.00;97995.81;5011374;28;20410;-76
2022/10/12 01:43:41;;;;;;;179.82;54.75;;;11.80;99.90;;;10.81;100.00;97995.59;5011136;28;20397;-76
2022/10/12 01:46:40;;;;;;;154.88;50.63;;;11.80;99.90;;;10.80;100.00;97996.63;5011246;28;20890;-76
2022/10/12 01:49:06;;;;;;;147.00;50.05;;;11.70;99.90;;;10.74;100.00;98002.88;5011237;28;20404;-76
2022/10/12 01:51:43;;;;;;;138.23;47.53;;;11.70;99.90;;;10.65;100.00;97996.34;4993461;28;20770;-75
2022/10/12 01:54:18;;;;;;;135.57;47.42;;;11.60;99.90;;;10.60;100.00;97993.59;5010693;28;20400;-76
2022/10/12 01:56:52;;;;;;;150.02;50.33;;;11.50;99.90;;;10.60;100.00;97994.38;5011053;28;20428;-76
2022/10/12 01:59:28;;;;;;;155.15;50.60;;;11.60;99.90;;;10.61;100.00;97987.25;5011147;28;20488;-76
2022/10/12 02:02:02;;;;;;;150.40;50.03;;;11.60;99.90;;;10.59;100.00;97990.16;5010995;28;20436;-76
2022/10/12 02:04:36;;;;;;;163.20;52.33;;;11.60;99.90;;;10.60;100.00;97993.59;5010610;28;20411;-76
2022/10/12 02:07:11;;;;;;;145.68;51.05;;;11.60;99.90;;;10.51;100.00;97992.38;5010956;28;20417;-76
2022/10/12 02:09:38;;;;;;;153.73;49.90;;;11.50;99.90;;;10.46;100.00;97991.22;5011060;28;20786;-76
2022/10/12 02:12:08;;;;;;;147.35;49.00;;;11.40;99.90;;;10.46;100.00;97998.34;5010860;28;20819;-76
2022/10/12 02:14:39;;;;;;;162.60;52.97;;;11.40;99.90;;;10.46;100.00;97991.22;5010371;28;20889;-75
2022/10/12 02:17:11;;;;;;;156.75;51.60;;;11.50;99.90;;;10.45;100.00;97986.16;5010877;28;20401;-76
2022/10/12 02:19:42;;;;;;;159.40;52.97;;;11.40;99.90;;;10.42;100.00;97984.78;5010864;28;20405;-75
2022/10/12 02:22:10;;;;;;;152.55;51.35;;;11.40;99.90;;;10.39;100.00;97979.97;4993042;28;20451;-76
2022/10/12 02:24:40;;;;;;;148.52;50.58;;;11.30;99.90;;;10.31;100.00;97977.69;5010364;28;20778;-75
2022/10/12 02:27:08;;;;;;;164.18;54.38;;;11.30;99.90;;;10.31;100.00;97979.53;5010627;28;20435;-76
2022/10/12 02:29:38;;;;;;;159.20;51.03;;;11.30;99.90;;;10.32;100.00;97981.13;5010724;28;20901;-76
2022/10/12 02:32:12;;;;;;;159.47;52.97;;;11.30;99.90;;;10.32;100.00;97984.59;5010775;28;20901;-76
2022/10/12 02:34:45;;;;;;;161.00;51.15;;;11.30;99.90;;;10.32;100.00;97984.59;5009787;28;20859;-76
2022/10/12 02:37:22;;;;;;;171.25;53.65;;;11.30;99.90;;;10.33;100.00;97982.75;5010639;28;20432;-76
2022/10/12 02:39:53;;;;;;;140.38;50.90;;;11.30;99.90;;;10.29;100.00;97984.25;5010634;28;20491;-76
2022/10/12 02:42:24;;;;;;;144.40;50.72;;;11.20;99.90;;;10.23;100.00;97983.34;5010568;28;20405;-76
2022/10/12 02:44:53;;;;;;;137.00;49.70;;;11.20;99.90;;;10.22;100.00;97984.41;5009673;28;20409;-77
2022/10/12 02:47:24;;;;;;;145.63;48.63;;;11.20;99.90;;;10.21;100.00;97985.44;5010493;28;20421;-77
2022/10/12 02:49:50;;;;;;;146.95;50.40;;;11.20;99.90;;;10.25;100.00;97986.56;5010460;28;20467;-76
2022/10/12 02:52:16;;;;;;;145.13;50.55;;;11.20;99.90;;;10.27;100.00;97976.56;5010462;28;20492;-77
2022/10/12 02:54:42;;;;;;;151.27;50.33;;;11.20;99.90;;;10.30;100.00;97970.00;5009935;28;20924;-76
2022/10/12 02:57:08;;;;;;;150.25;50.92;;;11.20;99.90;;;10.29;100.00;97971.03;5010441;28;20400;-76
2022/10/12 02:59:34;;;;;;;133.38;48.72;;;11.20;99.90;;;10.30;100.00;97970.00;5010453;28;20504;-77
2022/10/12 03:02:00;;;;;;;128.02;44.92;;;11.20;99.90;;;10.33;100.00;97972.97;5010120;28;20416;-76
2022/10/12 03:04:27;;;;;;;149.20;49.20;;;11.30;99.90;;;10.39;100.00;97977.31;5009830;28;20416;-76
2022/10/12 03:06:53;;;;;;;134.40;47.58;;;11.40;99.90;;;10.44;100.00;97977.44;4994574;28;20428;-76
2022/10/12 03:09:19;;;;;;;142.50;47.83;;;11.40;99.90;;;10.48;100.00;97978.56;5014131;28;20397;-76
2022/10/12 03:11:45;;;;;;;135.43;46.35;;;11.40;99.90;;;10.52;100.00;97983.38;5013948;28;20960;-76
2022/10/12 03:14:13;;;;;;;144.35;48.65;;;11.40;99.90;;;10.52;100.00;97978.91;5013694;28;20408;-75
2022/10/12 03:16:39;;;;;;;140.02;47.35;;;11.50;99.90;;;10.54;100.00;97983.94;5013876;28;20397;-76
2022/10/12 03:19:05;;;;;;;129.27;46.42;;;11.50;99.90;;;10.59;100.00;97982.22;5013960;28;20890;-76
2022/10/12 03:21:32;;;;;;;140.32;47.20;;;11.50;99.90;;;10.62;100.00;97984.38;5013902;28;20411;-76
2022/10/12 03:23:58;;;;;;;138.23;48.10;;;11.60;99.90;;;10.64;100.00;97981.50;5013532;28;20448;-76
2022/10/12 03:26:24;;;;;;;132.90;46.28;;;11.60;99.90;;;10.67;100.00;97983.69;5013850;28;21010;-76
2022/10/12 03:28:50;;;;;;;136.48;46.05;;;11.60;99.90;;;10.70;100.00;97981.34;5013806;28;20420;-76
2022/10/12 03:31:16;;;;;;;133.10;45.07;;;11.60;99.90;;;10.72;100.00;97978.47;5013777;28;20609;-76
2022/10/12 03:33:42;;;;;;;134.63;45.92;;;11.70;99.90;;;10.75;100.00;97970.06;5013299;28;20937;-76
2022/10/12 03:36:09;;;;;;;142.80;45.75;;;11.70;99.90;;;10.76;100.00;97976.94;5013651;28;20408;-76
2022/10/12 03:38:36;;;;;;;126.63;45.38;;;11.70;99.90;;;10.75;100.00;97983.31;5013713;28;20401;-76
2022/10/12 03:41:02;;;;;;;149.32;47.67;;;11.70;99.90;;;10.73;100.00;97980.06;5013593;28;20893;-76
2022/10/12 03:43:28;;;;;;;120.87;44.37;;;11.70;99.90;;;10.68;100.00;97972.03;5013261;28;20404;-76
2022/10/12 03:45:53;;;;;;;129.93;45.75;;;11.60;99.90;;;10.67;100.00;97986.31;5013466;28;20952;-76
2022/10/12 03:48:20;;;;;;;124.15;44.25;;;11.60;99.90;;;10.62;100.00;97973.78;4995501;28;20443;-76
2022/10/12 03:50:48;;;;;;;123.38;44.10;;;11.50;99.90;;;10.60;100.00;97978.50;5005372;28;20451;-77
2022/10/12 03:53:14;;;;;;;122.65;43.40;;;11.50;99.90;;;10.60;100.00;97983.00;5010472;28;20417;-76
2022/10/12 03:55:42;;;;;;;129.10;44.30;;;11.50;99.90;;;10.57;100.00;97975.53;5013104;28;20458;-77
2022/10/12 03:58:08;;;;;;;111.90;42.53;;;11.50;99.90;;;10.52;100.00;97978.09;5008026;28;20413;-77
2022/10/12 04:00:34;;;;;;;112.60;41.97;;;11.40;99.90;;;10.51;100.00;97977.28;5010160;28;20432;-79
2022/10/12 04:03:01;;;;;;;118.70;41.83;;;11.40;99.90;;;10.52;100.00;97975.44;5059277;22;20818;-75
2022/10/12 04:05:27;;;;;;;124.38;43.75;;;11.40;99.90;;;10.57;100.00;97983.47;5052809;28;20752;-73
2022/10/12 04:07:52;;;;;;;127.03;44.73;;;11.50;99.90;;;10.57;100.00;97979.00;5052843;28;20508;-72
2022/10/12 04:10:19;;;;;;;125.07;43.50;;;11.50;99.90;;;10.51;100.00;97979.94;5052975;28;20397;-72
2022/10/12 04:12:46;;;;;;;110.60;41.28;;;11.40;99.90;;;10.48;100.00;97977.75;5036121;28;20402;-74
2022/10/12 04:15:12;;;;;;;115.55;40.10;;;11.40;99.90;;;10.50;100.00;97974.88;5032925;28;20729;-74
2022/10/12 04:17:38;;;;;;;121.10;43.08;;;11.40;99.90;;;10.51;100.00;97979.13;5025938;28;20416;-73
2022/10/12 04:20:06;;;;;;;125.30;42.17;;;11.50;99.90;;;10.55;100.00;97975.75;5031121;28;20415;-72
2022/10/12 04:22:32;;;;;;;113.47;42.20;;;11.50;99.90;;;10.57;100.00;97978.19;5032238;28;20442;-73
2022/10/12 04:24:57;;;;;;;120.95;44.20;;;11.50;99.90;;;10.57;100.00;97984.28;5032222;28;20439;-74
2022/10/12 04:27:23;;;;;;;118.10;41.85;;;11.50;99.90;;;10.58;100.00;97982.44;5032471;28;20517;-72
2022/10/12 04:29:51;;;;;;;112.70;40.78;;;11.50;99.90;;;10.61;100.00;97981.94;5032611;28;20405;-75
2022/10/12 04:32:16;;;;;;;111.28;39.70;;;11.50;99.90;;;10.65;100.00;97985.75;5030685;28;20415;-74
2022/10/12 04:34:42;;;;;;;128.48;43.67;;;11.60;99.90;;;10.67;100.00;97978.38;5031712;28;20907;-74
2022/10/12 04:37:08;;;;;;;118.38;43.25;;;11.60;99.90;;;10.66;100.00;97982.88;5030284;28;20427;-73
2022/10/12 04:39:34;;;;;;;110.43;40.63;;;11.60;99.90;;;10.65;100.00;97988.41;5030826;28;20424;-73
2022/10/12 04:42:01;;;;;;;117.07;43.60;;;11.60;99.90;;;10.64;100.00;97989.44;5027989;28;20936;-75
2022/10/12 04:44:26;;;;;;;112.78;41.70;;;11.60;99.90;;;10.65;100.00;97988.41;5031543;28;20889;-75
2022/10/12 04:46:54;;;;;;;114.07;42.38;;;11.60;99.90;;;10.68;100.00;97990.56;5028330;28;20426;-74
2022/10/12 04:49:20;;;;;;;110.43;39.80;;;11.60;99.90;;;10.72;100.00;97989.06;5031610;28;20426;-75
2022/10/12 04:51:45;;;;;;;109.00;39.83;;;11.60;99.90;;;10.76;100.00;97990.97;5028610;28;20449;-74
2022/10/12 04:54:11;;;;;;;120.13;43.17;;;11.70;99.90;;;10.80;100.00;97993.97;5031079;28;20881;-75
2022/10/12 04:56:37;;;;;;;114.50;40.85;;;11.70;99.90;;;10.82;100.00;97994.56;5031747;28;20406;-76
2022/10/12 04:59:03;;;;;;;120.25;40.60;;;11.70;99.90;;;10.83;100.00;97996.94;5032000;28;20904;-75
2022/10/12 05:01:29;;;;;;;114.05;42.38;;;11.80;99.90;;;10.86;100.00;97996.47;5031729;28;20877;-74
2022/10/12 05:03:56;;;;;;;111.82;40.47;;;11.80;99.90;;;10.88;100.00;97993.59;5031512;28;20398;-74
2022/10/12 05:06:22;;;;;;;101.95;39.35;;;11.80;99.90;;;10.88;100.00;97993.59;5031700;28;20399;-74
2022/10/12 05:08:48;;;;;;;113.38;41.47;;;11.80;99.90;;;10.88;100.00;98001.53;5031632;28;20557;-74
2022/10/12 05:11:14;;;;;;;105.40;39.83;;;11.80;99.90;;;10.90;100.00;98007.38;5031776;28;20499;-74
2022/10/12 05:13:40;;;;;;;121.13;42.57;;;11.80;99.90;;;10.90;100.00;98001.31;5031252;28;20533;-75
2022/10/12 05:16:06;;;;;;;115.27;41.70;;;11.80;99.90;;;10.89;100.00;98000.50;5031468;28;20422;-75
2022/10/12 05:18:32;;;;;;;111.47;41.13;;;11.80;99.90;;;10.90;100.00;97998.66;5031609;28;20403;-75
2022/10/12 05:20:59;;;;;;;109.63;39.85;;;11.80;99.90;;;10.91;100.00;97993.09;5030224;28;20482;-75
2022/10/12 05:23:25;;;;;;;108.40;39.38;;;11.80;99.90;;;10.92;100.00;97992.06;5031055;28;20482;-74
2022/10/12 05:25:53;;;;;;;114.47;39.70;;;11.80;99.90;;;10.94;100.00;97997.13;5031426;28;21012;-71
2022/10/12 05:28:19;;;;;;;116.20;41.70;;;11.90;99.90;;;10.94;100.00;97997.94;5031379;28;20438;-73
2022/10/12 05:30:48;;;;;;;116.50;40.95;;;11.80;99.90;;;10.93;100.00;97998.16;5031077;28;20885;-75
2022/10/12 05:33:14;;;;;;;108.30;40.33;;;11.80;99.90;;;10.91;100.00;97998.41;5030901;28;20410;-73
2022/10/12 05:35:40;;;;;;;110.22;40.45;;;11.80;99.90;;;10.94;100.00;97994.47;5029013;28;20423;-75
2022/10/12 05:38:07;;;;;;;101.97;36.90;;;11.80;99.90;;;10.96;100.00;97993.22;5031162;28;20994;-75
2022/10/12 05:40:33;;;;;;;111.18;38.70;;;11.90;99.90;;;11.00;100.00;97996.97;5029802;28;20430;-75
2022/10/12 05:42:59;;;;;;;115.25;41.08;;;11.90;99.90;;;11.01;100.00;97988.00;5030639;28;20636;-74
2022/10/12 05:45:25;;;;;;;112.15;41.08;;;11.90;99.90;;;10.99;100.00;97983.97;5029583;28;20498;-74
2022/10/12 05:47:51;;;;;;;111.20;40.67;;;11.90;99.90;;;11.00;100.00;97999.63;5031100;28;20606;-74
2022/10/12 05:50:16;;;;;;;117.13;42.40;;;11.90;99.90;;;11.00;100.00;97996.97;5030832;28;20407;-74
2022/10/12 05:52:43;;;;;;;115.20;42.78;;;11.90;99.90;;;11.00;100.00;97999.63;5029362;28;20505;-75
2022/10/12 05:55:10;;;;;;;111.15;40.30;;;11.90;99.90;;;11.00;100.00;97994.31;5028779;28;20969;-76
2022/10/12 05:57:36;;;;;;;102.85;37.58;;;11.90;99.90;;;11.03;100.00;98006.31;5029081;28;20431;-75
2022/10/12 06:00:05;;;;;;;108.57;39.15;;;11.90;99.90;;;11.06;100.00;98005.81;5030648;28;20410;-76
2022/10/12 06:02:31;;;;;;;114.90;41.03;;;12.00;99.90;;;11.07;100.00;98002.94;5030454;28;20496;-75
2022/10/12 06:04:57;;;;;;;112.95;41.13;;;12.00;99.90;;;11.09;100.00;98008.81;5030371;28;20502;-76
2022/10/12 06:07:23;;;;;;;108.20;39.85;;;12.00;99.90;;;11.11;100.00;98008.56;5030806;28;20418;-75
2022/10/12 06:09:49;;;;;;;107.88;39.25;;;12.00;99.90;;;11.12;100.00;98008.34;5030682;28;20415;-75
2022/10/12 06:12:16;;;;;;;108.20;38.20;;;12.00;99.90;;;11.14;100.00;98008.88;5030017;28;20411;-74
2022/10/12 06:14:42;;;;;;;114.68;39.47;;;12.10;99.90;;;11.15;100.00;97999.88;5025320;28;20513;-75
2022/10/12 06:17:08;;;;;;;105.18;38.47;;;12.10;99.90;;;11.17;100.00;98007.59;5030647;28;20490;-76
2022/10/12 06:19:34;;;;;;;98.75;38.03;;;12.10;99.90;;;11.19;100.00;98010.81;5030810;28;20399;-76
2022/10/12 06:22:00;;;;;;;100.72;37.72;;;12.10;99.90;;;11.21;100.00;98006.06;5030875;28;20399;-76
2022/10/12 06:24:26;;;;;;;104.28;39.03;;;12.10;99.90;;;11.22;100.00;98013.78;5029286;28;20438;-76
2022/10/12 06:26:52;;;;;;;113.63;40.50;;;12.10;99.90;;;11.24;100.00;98006.41;5030813;28;20399;-76
2022/10/12 06:29:22;;;;;;;105.45;38.97;;;12.10;99.90;;;11.25;100.00;98015.16;5030473;28;20415;-76
2022/10/12 06:31:48;;;;;;;108.82;39.65;;;12.10;99.90;;;11.27;100.00;98009.63;5029215;28;20827;-74
2022/10/12 06:34:14;;;;;;;106.75;39.15;;;12.20;99.90;;;11.30;100.00;98014.44;5025595;28;20427;-74
2022/10/12 06:36:39;;;;;;;112.20;40.40;;;12.20;99.90;;;11.31;100.00;98019.50;5028080;28;20418;-74
2022/10/12 06:39:05;;;;;;;149.00;48.70;;;12.20;99.90;;;11.33;100.00;98013.97;5028227;28;20407;-74
2022/10/12 06:41:31;;;;;;;146.77;47.37;;;12.20;99.90;;;11.35;100.00;98022.50;5024664;28;20502;-74
2022/10/12 06:43:58;;;;;;;161.38;51.22;;;12.20;99.90;;;11.40;100.00;98025.22;5029361;28;20411;-74
2022/10/12 06:46:25;;;;;;;147.40;46.33;;;12.30;99.90;;;11.43;100.00;98017.56;5029811;28;20413;-76
2022/10/12 06:48:51;;;;;;;122.78;39.90;;;12.30;99.90;;;11.45;100.00;98026.09;5029692;28;20415;-74
2022/10/12 06:51:17;;;;;;;130.13;42.83;;;12.30;99.90;;;11.49;100.00;98024.59;5030098;28;20761;-75
2022/10/12 06:53:43;;;;;;;161.02;50.40;;;12.40;99.90;;;11.53;100.00;98020.38;5027861;28;20407;-75
2022/10/12 06:56:10;;;;;;;155.77;47.88;;;12.40;99.90;;;11.54;100.00;98024.66;5029626;28;20919;-75
2022/10/12 06:58:36;;;;;;;151.82;47.67;;;12.40;99.90;;;11.57;100.00;98026.03;5029801;28;20418;-75
2022/10/12 07:01:03;;;;;;;171.23;52.80;;;12.40;99.90;;;11.57;100.00;98021.53;5029968;28;20403;-74
2022/10/12 07:03:30;;;;;;;163.65;51.10;;;12.50;99.90;;;11.60;100.00;98022.88;5029514;28;20395;-74
2022/10/12 07:06:06;;;;;;;149.52;48.20;;;12.40;99.90;;;11.69;100.00;98025.94;5029751;28;20407;-74
2022/10/12 07:08:33;;;;;;;155.70;50.65;;;12.50;99.90;;;11.71;100.00;98027.31;5027917;28;20421;-74
2022/10/12 07:11:00;;;;;;;150.40;48.50;;;12.60;99.90;;;11.78;100.00;98027.97;5025944;28;20399;-74
2022/10/12 07:13:26;;;;;;;138.95;44.88;;;12.60;99.90;;;11.82;100.00;98015.81;5029170;28;20410;-75
2022/10/12 07:15:52;;;;;;;155.60;50.90;;;12.70;99.90;;;11.81;100.00;98024.00;5029513;28;20427;-74
2022/10/12 07:18:17;;;;;;;156.32;49.35;;;12.70;99.90;;;11.82;100.00;98018.47;5029602;28;20410;-74
2022/10/12 07:20:45;;;;;;;148.40;47.73;;;12.70;99.90;;;11.82;100.00;98026.44;5029668;28;20503;-74
2022/10/12 07:23:11;;;;;;;154.55;50.85;;;12.70;99.90;;;11.83;100.00;98033.34;5029302;28;20881;-74
2022/10/12 07:25:36;;;;;;;146.52;47.78;;;12.70;99.90;;;11.79;100.00;98032.25;5028871;28;20418;-75
2022/10/12 07:28:05;;;;;;;135.57;46.17;;;12.60;99.90;;;11.79;100.00;98029.59;5029580;28;20418;-75
2022/10/12 07:30:31;;;;;;;152.60;50.10;;;12.60;99.90;;;11.78;100.00;98027.97;5029821;28;20935;-75
2022/10/12 07:32:57;;;;;;;140.48;47.10;;;12.60;99.90;;;11.79;100.00;98029.59;5029115;28;20765;-74
2022/10/12 07:35:23;;;;;;;142.87;46.37;;;12.70;99.90;;;11.80;100.00;98025.88;5029500;28;20469;-74
2022/10/12 07:37:50;;;;;;;128.27;43.40;;;12.70;99.90;;;11.85;100.00;98023.31;5029519;28;20407;-74
2022/10/12 07:40:16;;;;;;;148.32;47.05;;;12.70;99.90;;;11.91;100.00;98022.31;5029603;28;20508;-75
2022/10/12 07:42:42;;;;;;;118.15;43.20;;;12.70;99.90;;;11.86;100.00;98029.41;5020608;28;21149;-75
2022/10/12 07:45:09;;;;;;;130.57;48.13;;;12.70;99.90;;;11.75;100.00;98020.50;5028118;28;20403;-75
2022/10/12 07:47:34;;;;;;;129.70;46.03;;;12.60;99.90;;;11.83;100.00;98024.59;5024132;28;20777;-75
2022/10/12 07:50:00;;;;;;;140.82;47.47;;;12.70;99.90;;;11.94;100.00;98021.03;5027020;28;20513;-75
2022/10/12 07:52:27;;;;;;;130.68;46.58;;;12.80;99.90;;;11.93;100.00;98027.41;5030443;28;20800;-76
2022/10/12 07:54:54;;;;;;;120.80;43.42;;;12.80;99.90;;;11.94;100.00;98026.34;5032816;28;20769;-75
2022/10/12 07:57:20;;;;;;;119.22;45.33;;;12.80;99.90;;;11.98;100.00;98019.50;5030827;28;21008;-75
2022/10/12 07:59:46;;;;;;;128.07;47.20;;;12.80;99.90;;;12.04;100.00;98026.47;5032979;28;20494;-76
2022/10/12 08:02:12;;;;;;;115.65;43.38;;;12.90;99.90;;;12.09;100.00;98029.22;5032866;28;20469;-75
2022/10/12 08:04:37;;;;;;;97.63;38.70;;;12.90;99.90;;;12.15;100.00;98025.56;5032490;28;20497;-75
2022/10/12 08:07:04;;;;;;;129.35;46.30;;;12.90;99.90;;;12.22;100.00;98028.06;5031937;28;20465;-76
2022/10/12 08:09:29;;;;;;;117.03;42.00;;;13.10;99.90;;;12.23;100.00;98027.81;5031403;28;20415;-76
2022/10/12 08:11:57;;;;;;;107.90;42.72;;;13.10;99.90;;;12.16;100.00;98031.69;5028294;28;20434;-76
2022/10/12 08:14:22;;;;;;;106.30;43.88;;;13.00;99.90;;;12.09;100.00;98037.19;5030334;28;20411;-76
2022/10/12 08:16:48;;;;;;;101.53;42.15;;;13.00;99.90;;;12.13;100.00;98032.16;5026007;28;20450;-76
2022/10/12 08:19:14;;;;;;;101.15;41.25;;;13.00;99.90;;;12.15;100.00;98040.69;5031906;28;20403;-76
2022/10/12 08:21:41;;;;;;;113.28;42.50;;;13.00;99.90;;;12.21;100.00;98037.88;5032635;28;20486;-76
2022/10/12 08:24:08;;;;;;;85.70;39.05;;;13.10;99.90;;;12.02;100.00;98039.19;5032303;28;20395;-76
2022/10/12 08:26:34;;;;;;;96.78;40.03;;;12.90;99.90;;;12.16;100.00;98037.00;5032575;28;20414;-76
2022/10/12 08:29:03;;;;;;;98.88;40.33;;;13.00;99.90;;;12.27;100.00;98044.03;5032473;28;20904;-76
2022/10/12 08:31:29;;;;;;;93.80;38.57;;;13.10;99.90;;;12.35;100.00;98041.75;5032401;28;20912;-76
2022/10/12 08:33:56;;;;;;;86.13;35.53;;;13.20;99.90;;;12.45;100.00;98037.63;5032067;28;20416;-76
2022/10/12 08:36:21;;;;;;;88.78;37.30;;;13.30;99.90;;;12.48;100.00;98037.16;5032341;28;20414;-75
2022/10/12 08:38:51;;;;;;;79.28;35.60;;;13.30;99.90;;;12.55;100.00;98043.09;5032375;28;20530;-76
2022/10/12 08:41:37;;;;;;;79.40;34.33;;;13.40;99.90;;;12.59;100.00;98038.88;5032223;28;20399;-76
2022/10/12 08:44:27;;;;;;;81.28;34.25;;;13.40;99.90;;;12.65;100.00;98041.34;5031992;28;20399;-76
2022/10/12 08:46:56;;;;;;;79.80;34.53;;;13.40;99.90;;;12.71;100.00;98036.88;5032113;28;20414;-76
2022/10/12 08:49:27;;;;;;;81.70;33.75;;;13.50;99.90;;;12.59;100.00;98042.34;5030704;28;20423;-76
2022/10/12 08:51:56;;;;;;;77.13;32.22;;;13.50;99.90;;;12.67;100.00;98039.25;5024238;28;20395;-76
2022/10/12 08:54:27;;;;;;;71.93;32.40;;;13.40;99.90;;;12.65;100.00;98036.03;5031494;28;20402;-76
2022/10/12 08:56:54;;;;;;;73.70;32.65;;;13.50;99.90;;;12.66;100.00;98032.31;5030524;28;20439;-76
2022/10/12 08:59:22;;;;;;;62.47;31.98;;;13.50;99.90;;;12.62;100.00;98022.44;5031925;28;20458;-76
2022/10/12 09:02:00;;;;;;;66.50;31.48;;;13.50;99.90;;;12.64;100.00;98025.63;5031773;28;20792;-76
2022/10/12 09:04:49;;;;;;;57.53;28.83;;;13.50;99.90;;;12.67;100.00;98018.00;5030958;28;20429;-76
2022/10/12 09:07:25;;;;;;;60.87;29.70;;;13.50;99.90;;;12.80;100.00;98022.09;5032007;28;20835;-76
2022/10/12 09:10:06;;;;;;;67.87;30.03;;;13.50;99.90;;;12.86;100.00;98015.78;5031878;28;20542;-76
2022/10/12 09:12:49;;;;;;;53.75;26.55;;;13.70;99.90;;;12.96;100.00;98017.75;5031766;28;20402;-76
2022/10/12 09:15:23;;;;;;;55.47;27.95;;;13.80;99.90;;;12.91;100.00;98021.19;5031690;28;20757;-76
2022/10/12 09:17:52;;;;;;;62.72;28.50;;;13.70;99.90;;;12.94;100.00;98017.19;5031818;28;20433;-76
2022/10/12 09:20:25;;;;;;;50.60;25.33;;;13.80;99.90;;;12.94;100.00;98020.66;5029831;28;21315;-76
2022/10/12 09:22:55;;;;;;;52.92;25.38;;;13.70;99.90;;;12.85;100.00;98024.03;5029485;28;20506;-76
2022/10/12 09:25:26;;;;;;;50.20;22.63;;;13.70;99.90;;;12.98;100.00;98020.97;5031366;28;20438;-76
2022/10/12 09:27:52;;;;;;;53.72;24.52;;;13.80;99.90;;;13.07;100.00;98022.13;5031639;28;20765;-80
2022/10/12 09:30:20;;;;;;;47.80;22.92;;;13.90;99.90;;;13.07;100.00;98035.44;5031599;28;20405;-79
2022/10/12 09:33:17;;;;;;;47.83;22.98;;;13.90;99.90;;;13.12;100.00;98027.50;5031386;28;20815;-78
2022/10/12 09:35:45;;;;;;;53.90;24.30;;;13.80;99.90;;;13.08;100.00;98037.81;5031472;28;20409;-75
2022/10/12 09:38:12;;;;;;;44.90;21.90;;;13.90;99.90;;;13.10;100.00;98033.06;5031449;28;20437;-76
2022/10/12 09:40:39;;;;;;;51.55;24.65;;;13.90;99.90;;;13.11;100.00;98029.34;5030186;28;20403;-76
2022/10/12 09:43:06;;;;;;;46.55;23.00;;;13.90;99.90;;;13.06;100.00;98047.09;5031066;28;20976;-76
2022/10/12 09:45:34;;;;;;;52.08;24.08;;;13.90;99.90;;;13.14;100.00;98047.50;5031351;28;20403;-76
2022/10/12 09:48:14;;;;;;;47.85;23.60;;;14.00;99.90;;;13.01;100.00;98044.38;5031321;28;20500;-76
2022/10/12 09:50:44;;;;;;;49.92;23.15;;;13.90;99.90;;;12.84;100.00;98052.44;5031333;28;20902;-75
2022/10/12 09:53:24;;;;;;;47.35;22.73;;;13.60;99.90;;;12.91;100.00;98047.75;5030832;28;20916;-76
2022/10/12 09:55:58;;;;;;;52.05;22.52;;;13.70;99.90;;;12.92;100.00;98045.91;5031081;28;20888;-76
2022/10/12 09:58:26;;;;;;;51.28;22.52;;;13.80;99.90;;;12.87;100.00;98048.47;5029973;28;20502;-77
2022/10/12 10:03:44;;;;;;;49.50;23.63;;;13.80;99.90;;;12.96;100.00;98036.34;5026306;28;20442;-79
2022/10/12 10:06:10;;;;;;;47.30;22.15;;;13.80;99.90;;;13.08;100.00;98034.38;5029989;28;20425;-79